Time;durP1;ratioP1;P1;durP2;ratioP2;P2;SDS_P1;SDS_P2;PMS_P1;PMS_P2;Temp;Humidity;BMP_temperature;BMP_pressure;BME280_temperature;BME280_humidity;BME280_pressure;Samples;Min_cycle;Max_cycle;Signal;HPM_P1;HPM_P2
2023/05/07 00:00:33;;;;;;;;;;;;;;;22.25;100.00;98957.91;5015994;28;19962;-41
2023/05/07 00:02:58;;;;;;;;;;;;;;;21.48;100.00;98980.53;5016092;28;19920;-41
2023/05/07 00:05:24;;;;;;;;;;;;;;;22.46;100.00;98958.78;5017591;28;20032;-41
2023/05/07 00:07:50;;;;;;;;;;;;;;;22.54;100.00;98932.75;5017840;28;19921;-41
2023/05/07 00:10:15;;;;;;;;;;;;;;;23.17;100.00;98914.38;5017659;28;19917;-41
2023/05/07 00:12:40;;;;;;;;;;;;;;;22.90;100.00;98933.28;5016745;28;20042;-41
2023/05/07 00:15:06;;;;;;;;;;;;;;;22.77;100.00;98928.22;5016443;28;19933;-41
2023/05/07 00:17:32;;;;;;;;;;;;;;;22.90;100.00;98914.91;5017184;28;19917;-41
2023/05/07 00:19:57;;;;;;;;;;;;;;;23.33;100.00;98898.13;5013788;28;20011;-42
2023/05/07 00:22:22;;;;;;;;;;;;;;;22.64;100.00;98921.50;5016311;28;20036;-42
2023/05/07 00:24:48;;;;;;;;;;;;;;;21.04;100.00;98970.81;5016838;28;20032;-41
2023/05/07 00:27:13;;;;;;;;;;;;;;;21.83;100.00;98978.75;5016774;28;20012;-41
2023/05/07 00:29:38;;;;;;;;;;;;;;;22.89;100.00;98930.78;5017891;28;19913;-41
2023/05/07 00:32:03;;;;;;;;;;;;;;;22.98;100.00;98924.75;5015188;28;19989;-41
2023/05/07 00:34:29;;;;;;;;;;;;;;;22.67;100.00;98932.59;5016437;28;19921;-41
2023/05/07 00:36:54;;;;;;;;;;;;;;;22.70;100.00;98936.75;5016555;28;19971;-41
2023/05/07 00:39:19;;;;;;;;;;;;;;;22.23;100.00;98944.91;5016923;28;20364;-41
2023/05/07 00:41:45;;;;;;;;;;;;;;;22.28;100.00;98950.66;5023897;28;20349;-41
2023/05/07 00:44:11;;;;;;;;;;;;;;;22.75;100.00;98945.06;5015573;28;19929;-41
2023/05/07 00:46:36;;;;;;;;;;;;;;;22.74;100.00;98932.91;5016932;28;19980;-41
2023/05/07 00:49:01;;;;;;;;;;;;;;;22.26;100.00;98931.56;5014573;28;20019;-41
2023/05/07 00:51:27;;;;;;;;;;;;;;;22.37;100.00;98935.91;5019444;28;20011;-41
2023/05/07 00:53:52;;;;;;;;;;;;;;;23.31;100.00;98910.56;5017554;28;19929;-42
2023/05/07 00:56:18;;;;;;;;;;;;;;;22.98;100.00;98919.50;5021055;28;19971;-42
2023/05/07 00:58:43;;;;;;;;;;;;;;;23.15;100.00;98904.97;5016727;28;19927;-41
2023/05/07 01:01:08;;;;;;;;;;;;;;;23.50;100.00;98894.03;5014766;28;20289;-41
2023/05/07 01:03:33;;;;;;;;;;;;;;;23.51;100.00;98895.66;5017006;28;20012;-41
2023/05/07 01:05:59;;;;;;;;;;;;;;;23.87;100.00;98879.47;5016979;28;19921;-41
2023/05/07 01:08:26;;;;;;;;;;;;;;;24.16;100.00;98859.25;5015921;28;19967;-42
2023/05/07 01:10:51;;;;;;;;;;;;;;;23.37;100.00;98889.00;5020263;28;19925;-41
2023/05/07 01:13:17;;;;;;;;;;;;;;;23.63;100.00;98887.66;5011122;28;19916;-42
2023/05/07 01:15:43;;;;;;;;;;;;;;;22.95;100.00;98904.81;5012204;28;19920;-41
2023/05/07 01:18:08;;;;;;;;;;;;;;;23.03;100.00;98911.25;4998287;28;20031;-41
2023/05/07 01:20:33;;;;;;;;;;;;;;;23.64;100.00;98874.41;5019312;28;20031;-41
2023/05/07 01:22:58;;;;;;;;;;;;;;;23.90;100.00;98871.28;5014844;28;20095;-42
2023/05/07 01:25:24;;;;;;;;;;;;;;;23.90;100.00;98868.66;5015511;28;20024;-42
2023/05/07 01:27:49;;;;;;;;;;;;;;;23.84;100.00;98874.47;5026193;28;20424;-41
2023/05/07 01:30:15;;;;;;;;;;;;;;;23.12;100.00;98889.44;5022148;28;19924;-42
2023/05/07 01:32:44;;;;;;;;;;;;;;;23.65;100.00;98876.09;5024421;28;19917;-42
2023/05/07 01:35:14;;;;;;;;;;;;;;;24.07;100.00;98865.34;5021433;28;19920;-42
2023/05/07 01:37:39;;;;;;;;;;;;;;;23.69;100.00;98882.72;5019629;28;20007;-42
2023/05/07 01:40:05;;;;;;;;;;;;;;;23.78;100.00;98876.66;5016916;28;20377;-42
2023/05/07 01:42:30;;;;;;;;;;;;;;;23.86;100.00;98877.81;5025248;28;19947;-41
2023/05/07 01:44:55;;;;;;;;;;;;;;;23.91;100.00;98870.34;5000486;28;20355;-42
2023/05/07 01:47:20;;;;;;;;;;;;;;;23.87;100.00;98869.75;5019443;28;19979;-41
2023/05/07 01:49:46;;;;;;;;;;;;;;;23.62;100.00;98881.59;5017923;28;19925;-41
2023/05/07 01:52:11;;;;;;;;;;;;;;;23.44;100.00;98893.72;5018199;28;19975;-41
2023/05/07 01:54:37;;;;;;;;;;;;;;;23.56;100.00;98887.38;5018129;28;19987;-41
2023/05/07 01:57:02;;;;;;;;;;;;;;;23.82;100.00;98877.25;5021478;28;19916;-41
2023/05/07 01:59:27;;;;;;;;;;;;;;;23.90;100.00;98864.25;5018828;28;19924;-42
2023/05/07 02:01:52;;;;;;;;;;;;;;;23.81;100.00;98867.66;5016724;28;19944;-42
2023/05/07 02:04:18;;;;;;;;;;;;;;;23.71;100.00;98874.69;5024950;28;20039;-41
2023/05/07 02:06:43;;;;;;;;;;;;;;;23.22;100.00;98874.56;5023462;28;19917;-41
2023/05/07 02:09:11;;;;;;;;;;;;;;;22.59;100.00;98900.06;5018488;28;20444;-41
2023/05/07 02:11:36;;;;;;;;;;;;;;;22.78;100.00;98900.16;5018659;28;19917;-42
2023/05/07 02:14:01;;;;;;;;;;;;;;;23.16;100.00;98880.34;5017489;28;19917;-41
2023/05/07 02:16:27;;;;;;;;;;;;;;;23.22;100.00;98876.34;5024208;28;20080;-42
2023/05/07 02:18:52;;;;;;;;;;;;;;;23.53;100.00;98866.63;5017341;28;19920;-41
2023/05/07 02:21:17;;;;;;;;;;;;;;;23.64;100.00;98863.88;5018613;28;20290;-41
2023/05/07 02:23:42;;;;;;;;;;;;;;;21.27;100.00;98935.81;5017227;28;20329;-42
2023/05/07 02:26:08;;;;;;;;;;;;;;;20.65;100.00;98985.94;5018264;28;20286;-41
2023/05/07 02:28:35;;;;;;;;;;;;;;;19.38;100.00;99034.91;5018161;28;19917;-41
2023/05/07 02:31:02;;;;;;;;;;;;;;;21.38;100.00;99015.38;5017997;28;19924;-41
2023/05/07 02:33:27;;;;;;;;;;;;;;;22.70;100.00;98958.56;5016600;28;19917;-41
2023/05/07 02:35:52;;;;;;;;;;;;;;;22.51;100.00;98934.78;5016260;28;19943;-42
2023/05/07 02:38:17;;;;;;;;;;;;;;;22.94;100.00;98915.44;5017898;28;19919;-42
2023/05/07 02:40:43;;;;;;;;;;;;;;;21.75;100.00;98944.41;5017868;28;19921;-41
2023/05/07 02:43:08;;;;;;;;;;;;;;;22.98;100.00;98930.00;5016791;28;20396;-42
2023/05/07 02:45:33;;;;;;;;;;;;;;;23.63;100.00;98896.41;5019341;28;19932;-41
2023/05/07 02:47:59;;;;;;;;;;;;;;;21.73;100.00;98926.19;5018589;28;19929;-41
2023/05/07 02:50:25;;;;;;;;;;;;;;;22.09;100.00;98958.28;5017507;28;19917;-42
2023/05/07 02:52:50;;;;;;;;;;;;;;;22.84;100.00;98949.53;5017507;28;19917;-41
2023/05/07 02:55:15;;;;;;;;;;;;;;;22.50;100.00;98947.09;5023566;28;20029;-41
2023/05/07 02:57:40;;;;;;;;;;;;;;;22.76;100.00;98920.44;5018883;28;19921;-41
2023/05/07 03:00:16;;;;;;;;;;;;;;;23.11;100.00;98912.25;5021857;28;19925;-42
2023/05/07 03:02:41;;;;;;;;;;;;;;;23.12;100.00;98918.34;5026643;28;19924;-41
2023/05/07 03:05:06;;;;;;;;;;;;;;;23.46;100.00;98904.94;5018433;28;19948;-41
2023/05/07 03:07:32;;;;;;;;;;;;;;;23.21;100.00;98898.34;5017197;28;19994;-41
2023/05/07 03:09:57;;;;;;;;;;;;;;;23.02;100.00;98920.09;5017595;28;19917;-41
2023/05/07 03:12:22;;;;;;;;;;;;;;;23.36;100.00;98903.09;5017083;28;20150;-41
2023/05/07 03:14:47;;;;;;;;;;;;;;;23.29;100.00;98907.22;5016763;28;19948;-42
2023/05/07 03:17:12;;;;;;;;;;;;;;;23.44;100.00;98894.53;5016661;28;19920;-41
2023/05/07 03:19:38;;;;;;;;;;;;;;;23.39;100.00;98897.56;5017610;28;20147;-41
2023/05/07 03:22:03;;;;;;;;;;;;;;;23.42;100.00;98896.47;5018445;28;20156;-41
2023/05/07 03:24:28;;;;;;;;;;;;;;;;;;5016537;28;19917;-41
2023/05/07 03:26:53;;;;;;;;;;;;;;;23.03;100.00;98898.13;5016888;28;20440;-41
2023/05/07 03:29:19;;;;;;;;;;;;;;;23.14;100.00;98900.66;5020051;28;19923;-41
2023/05/07 03:31:45;;;;;;;;;;;;;;;22.74;100.00;98922.41;5020356;28;19924;-41
2023/05/07 03:34:10;;;;;;;;;;;;;;;22.47;100.00;98926.34;5016656;28;19949;-41
2023/05/07 03:36:35;;;;;;;;;;;;;;;22.58;100.00;98916.75;5018190;28;19972;-41
2023/05/07 03:39:00;;;;;;;;;;;;;;;22.54;100.00;98924.88;5020783;28;19920;-41
2023/05/07 03:41:26;;;;;;;;;;;;;;;22.75;100.00;98922.25;5017113;28;20039;-41
2023/05/07 03:43:51;;;;;;;;;;;;;;;22.94;100.00;98907.56;5015531;28;20023;-42
2023/05/07 03:46:16;;;;;;;;;;;;;;;22.92;100.00;98915.59;5015887;28;19932;-41
2023/05/07 03:48:41;;;;;;;;;;;;;;;22.83;100.00;98926.88;5017071;28;19917;-41
2023/05/07 03:51:06;;;;;;;;;;;;;;;22.97;100.00;98918.66;5016523;28;19921;-41
2023/05/07 03:53:32;;;;;;;;;;;;;;;23.17;100.00;98910.91;5015466;28;19951;-41
2023/05/07 03:55:57;;;;;;;;;;;;;;;23.19;100.00;98906.34;5016811;28;19921;-41
2023/05/07 03:58:22;;;;;;;;;;;;;;;23.27;100.00;98901.28;5023860;28;20004;-41
2023/05/07 04:00:48;;;;;;;;;;;;;;;23.27;100.00;98908.34;5017015;28;20000;-41
2023/05/07 04:03:13;;;;;;;;;;;;;;;23.34;100.00;98897.16;5015702;28;20048;-41
2023/05/07 04:05:38;;;;;;;;;;;;;;;23.37;100.00;98904.75;5016383;28;19953;-41
2023/05/07 04:08:05;;;;;;;;;;;;;;;23.37;100.00;98899.50;5016545;28;19921;-41
2023/05/07 04:10:30;;;;;;;;;;;;;;;23.34;100.00;98910.28;5016701;28;19917;-41
2023/05/07 04:12:56;;;;;;;;;;;;;;;23.37;100.00;98909.19;5015250;28;19928;-41
2023/05/07 04:15:22;;;;;;;;;;;;;;;23.31;100.00;98921.06;5020335;28;20779;-41
2023/05/07 04:17:47;;;;;;;;;;;;;;;23.18;100.00;98923.09;5019605;28;19913;-41
2023/05/07 04:20:14;;;;;;;;;;;;;;;23.34;100.00;98920.81;5016130;28;19913;-41
2023/05/07 04:22:39;;;;;;;;;;;;;;;23.24;100.00;98926.97;5015951;28;19925;-41
2023/05/07 04:25:05;;;;;;;;;;;;;;;23.31;100.00;98918.44;5015284;28;20529;-41
2023/05/07 04:27:30;;;;;;;;;;;;;;;23.38;100.00;98914.31;5015314;28;20352;-41
2023/05/07 04:29:55;;;;;;;;;;;;;;;23.35;100.00;98924.25;5016251;28;19917;-41
2023/05/07 04:32:21;;;;;;;;;;;;;;;23.28;100.00;98921.31;5015597;28;20377;-41
2023/05/07 04:34:46;;;;;;;;;;;;;;;23.32;100.00;98927.16;5015507;28;20636;-41
2023/05/07 04:37:11;;;;;;;;;;;;;;;;;;5015638;28;20381;-41
2023/05/07 04:39:37;;;;;;;;;;;;;;;23.51;100.00;98911.44;5015720;28;19920;-41
2023/05/07 04:42:03;;;;;;;;;;;;;;;23.49;100.00;98915.16;5015287;28;19928;-41
2023/05/07 04:44:30;;;;;;;;;;;;;;;23.34;100.00;98922.59;5015226;28;19952;-42
2023/05/07 04:46:56;;;;;;;;;;;;;;;23.36;100.00;98923.31;5015876;28;19917;-41
2023/05/07 04:49:21;;;;;;;;;;;;;;;23.49;100.00;98916.03;5012273;28;19920;-41
2023/05/07 04:51:46;;;;;;;;;;;;;;;23.46;100.00;98920.69;5021453;28;19917;-42
2023/05/07 04:54:11;;;;;;;;;;;;;;;23.53;100.00;98914.78;5019110;28;20011;-41
2023/05/07 04:56:37;;;;;;;;;;;;;;;23.55;100.00;98915.47;5021096;28;20296;-41
2023/05/07 04:59:02;;;;;;;;;;;;;;;22.58;100.00;98924.63;5014337;28;19917;-41
2023/05/07 05:01:27;;;;;;;;;;;;;;;22.70;100.00;98963.00;5019660;28;19960;-41
2023/05/07 05:03:52;;;;;;;;;;;;;;;23.27;100.00;98935.44;5013862;28;19952;-41
2023/05/07 05:06:17;;;;;;;;;;;;;;;23.10;100.00;98933.41;5013193;28;19939;-41
2023/05/07 05:08:43;;;;;;;;;;;;;;;23.55;100.00;98927.78;5014294;28;19923;-41
2023/05/07 05:11:08;;;;;;;;;;;;;;;23.60;100.00;98930.84;5014467;28;19917;-41
2023/05/07 05:13:33;;;;;;;;;;;;;;;23.25;100.00;98950.50;5013875;28;19917;-43
2023/05/07 05:15:58;;;;;;;;;;;;;;;22.65;100.00;98954.63;5014242;28;19928;-42
2023/05/07 05:18:24;;;;;;;;;;;;;;;22.49;100.00;98962.97;5015090;28;19913;-41
2023/05/07 05:20:49;;;;;;;;;;;;;;;23.32;100.00;98949.00;5015012;28;19921;-41
2023/05/07 05:23:14;;;;;;;;;;;;;;;22.50;100.00;98968.06;5014071;28;19970;-42
2023/05/07 05:25:40;;;;;;;;;;;;;;;23.35;100.00;98932.97;5014489;28;19928;-41
2023/05/07 05:28:05;;;;;;;;;;;;;;;23.79;100.00;98930.94;5014431;28;20040;-41
2023/05/07 05:30:30;;;;;;;;;;;;;;;23.84;100.00;98932.34;5014131;28;20429;-41
2023/05/07 05:32:55;;;;;;;;;;;;;;;24.04;100.00;98926.16;5014878;28;20408;-41
2023/05/07 05:35:21;;;;;;;;;;;;;;;24.20;100.00;98921.16;5014717;28;19921;-42
2023/05/07 05:37:46;;;;;;;;;;;;;;;23.91;100.00;98913.25;5015003;28;19940;-42
2023/05/07 05:40:11;;;;;;;;;;;;;;;23.02;100.00;98967.38;5014148;28;19920;-42
2023/05/07 05:42:37;;;;;;;;;;;;;;;23.94;100.00;98941.06;5015102;28;19968;-41
2023/05/07 05:45:02;;;;;;;;;;;;;;;23.76;100.00;98936.44;5015292;28;19940;-42
2023/05/07 05:47:27;;;;;;;;;;;;;;;23.99;100.00;98941.47;5014997;28;19929;-42
2023/05/07 05:49:52;;;;;;;;;;;;;;;24.40;100.00;98915.88;5015061;28;19948;-42
2023/05/07 05:52:18;;;;;;;;;;;;;;;22.50;100.00;98970.69;5016703;28;19943;-42
2023/05/07 05:54:43;;;;;;;;;;;;;;;23.01;100.00;98965.69;5019287;28;20319;-42
2023/05/07 05:57:08;;;;;;;;;;;;;;;22.64;100.00;98947.75;5014701;28;19928;-42
2023/05/07 05:59:34;;;;;;;;;;;;;;;23.01;100.00;98981.47;5015803;28;20006;-42
2023/05/07 06:01:59;;;;;;;;;;;;;;;24.21;100.00;98940.41;5016128;28;20020;-42
2023/05/07 06:04:24;;;;;;;;;;;;;;;24.78;100.00;98933.47;5014210;28;19917;-42
2023/05/07 06:06:50;;;;;;;;;;;;;;;24.73;100.00;98917.28;5014950;28;19940;-42
2023/05/07 06:09:15;;;;;;;;;;;;;;;23.64;100.00;98948.03;5020692;28;19917;-42
2023/05/07 06:11:40;;;;;;;;;;;;;;;24.25;100.00;98933.91;5018698;28;20459;-42
2023/05/07 06:14:06;;;;;;;;;;;;;;;24.15;100.00;98957.59;5017301;28;20328;-42
2023/05/07 06:16:31;;;;;;;;;;;;;;;24.51;100.00;98931.56;5018218;28;19917;-42
2023/05/07 06:18:56;;;;;;;;;;;;;;;23.20;100.00;98989.47;5018156;28;19928;-42
2023/05/07 06:21:21;;;;;;;;;;;;;;;24.03;100.00;98974.44;5018544;28;21321;-42
2023/05/07 06:23:47;;;;;;;;;;;;;;;21.90;100.00;99021.88;5002523;28;20583;-42
2023/05/07 06:26:12;;;;;;;;;;;;;;;20.78;100.00;99053.91;5018587;28;20468;-42
2023/05/07 06:28:37;;;;;;;;;;;;;;;22.65;100.00;99049.13;5016459;28;20808;-42
2023/05/07 06:31:12;;;;;;;;;;;;;;;23.27;100.00;99016.88;5022612;28;20035;-42
2023/05/07 06:33:37;;;;;;;;;;;;;;;23.04;100.00;99024.06;5024586;28;19928;-42
2023/05/07 06:36:03;;;;;;;;;;;;;;;23.37;100.00;98980.13;5019295;28;20480;-42
2023/05/07 06:38:28;;;;;;;;;;;;;;;22.22;100.00;99039.50;5024202;28;20344;-42
2023/05/07 06:40:55;;;;;;;;;;;;;;;24.17;100.00;98995.09;5020455;28;19928;-42
2023/05/07 06:43:20;;;;;;;;;;;;;;;24.31;100.00;98993.03;5015737;28;20425;-42
2023/05/07 06:45:46;;;;;;;;;;;;;;;25.22;100.00;98956.69;5020426;28;19929;-42
2023/05/07 06:48:11;;;;;;;;;;;;;;;23.01;100.00;99026.94;5019008;28;19936;-42
2023/05/07 06:50:36;;;;;;;;;;;;;;;23.10;100.00;99017.47;5020578;28;19964;-43
2023/05/07 06:53:01;;;;;;;;;;;;;;;24.14;100.00;99019.06;5025874;28;19924;-42
2023/05/07 06:55:27;;;;;;;;;;;;;;;23.90;100.00;99006.28;5025564;28;19974;-42
2023/05/07 06:57:52;;;;;;;;;;;;;;;22.14;100.00;99069.75;5028160;28;19921;-43
2023/05/07 07:00:17;;;;;;;;;;;;;;;23.91;100.00;99060.53;5026871;28;19921;-42
2023/05/07 07:02:43;;;;;;;;;;;;;;;22.90;100.00;99054.09;5014991;28;19920;-42
2023/05/07 07:05:08;;;;;;;;;;;;;;;23.90;100.00;99014.16;5015877;28;19921;-42
2023/05/07 07:07:33;;;;;;;;;;;;;;;24.78;100.00;98990.59;5019168;28;20541;-42
2023/05/07 07:09:59;;;;;;;;;;;;;;;24.98;100.00;98988.78;5018191;28;20062;-42
2023/05/07 07:12:25;;;;;;;;;;;;;;;25.04;100.00;98981.16;5017097;28;19925;-42
2023/05/07 07:14:51;;;;;;;;;;;;;;;22.51;100.00;99021.41;5016270;28;19921;-42
2023/05/07 07:17:16;;;;;;;;;;;;;;;23.96;100.00;99036.47;5016974;28;19917;-42
2023/05/07 07:19:41;;;;;;;;;;;;;;;22.74;100.00;99037.91;5016852;28;19921;-42
2023/05/07 07:22:06;;;;;;;;;;;;;;;24.34;100.00;99016.47;5015951;28;19921;-42
2023/05/07 07:24:31;;;;;;;;;;;;;;;23.74;100.00;99059.38;5016568;28;19921;-43
2023/05/07 07:26:57;;;;;;;;;;;;;;;23.68;100.00;99062.47;5017286;28;19928;-43
2023/05/07 07:29:22;;;;;;;;;;;;;;;23.75;100.00;99039.97;5014516;28;19916;-43
2023/05/07 07:31:48;;;;;;;;;;;;;;;23.59;100.00;99076.41;5016775;28;20470;-43
2023/05/07 07:34:13;;;;;;;;;;;;;;;23.53;100.00;99056.72;5014987;28;19917;-43
2023/05/07 07:36:39;;;;;;;;;;;;;;;23.07;100.00;99044.81;5017084;28;20016;-43
2023/05/07 07:39:04;;;;;;;;;;;;;;;23.66;100.00;99064.41;5016528;28;20004;-43
2023/05/07 07:41:29;;;;;;;;;;;;;;;22.57;100.00;99072.56;5016637;28;19956;-43
2023/05/07 07:43:54;;;;;;;;;;;;;;;23.60;100.00;99054.41;5024892;28;19920;-43
2023/05/07 07:46:20;;;;;;;;;;;;;;;23.76;100.00;99067.94;5017340;28;19921;-43
2023/05/07 07:48:45;;;;;;;;;;;;;;;22.55;100.00;99080.56;5016763;28;19936;-43
2023/05/07 07:51:10;;;;;;;;;;;;;;;23.69;100.00;99051.00;5016619;28;19925;-43
2023/05/07 07:53:36;;;;;;;;;;;;;;;24.16;100.00;99048.72;5016048;28;19924;-43
2023/05/07 07:56:01;;;;;;;;;;;;;;;24.77;100.00;99025.78;5016302;28;19925;-43
2023/05/07 07:58:26;;;;;;;;;;;;;;;24.17;100.00;99028.47;5016841;28;19945;-43
2023/05/07 08:00:51;;;;;;;;;;;;;;;23.64;100.00;99042.66;5014608;28;19924;-43
2023/05/07 08:03:16;;;;;;;;;;;;;;;24.56;100.00;99029.44;5015833;28;19921;-43
2023/05/07 08:05:42;;;;;;;;;;;;;;;25.63;100.00;99004.72;5016632;28;19924;-43
2023/05/07 08:08:07;;;;;;;;;;;;;;;23.59;100.00;99055.38;5016314;28;20123;-44
2023/05/07 08:10:34;;;;;;;;;;;;;;;23.13;100.00;99061.88;5015909;28;20012;-43
2023/05/07 08:12:59;;;;;;;;;;;;;;;25.40;100.00;99005.06;5016971;28;20289;-43
2023/05/07 08:15:25;;;;;;;;;;;;;;;24.22;100.00;99028.91;5016262;28;19917;-44
2023/05/07 08:17:50;;;;;;;;;;;;;;;24.30;100.00;99022.97;5016708;28;20012;-44
2023/05/07 08:20:15;;;;;;;;;;;;;;;24.17;100.00;99010.88;5018725;28;20011;-44
2023/05/07 08:22:40;;;;;;;;;;;;;;;25.65;100.00;98994.84;5018161;28;19931;-43
2023/05/07 08:25:06;;;;;;;;;;;;;;;24.55;100.00;99017.22;5012819;28;20079;-43
2023/05/07 08:27:31;;;;;;;;;;;;;;;25.26;100.00;99018.72;5013349;28;19924;-43
2023/05/07 08:29:56;;;;;;;;;;;;;;;23.52;100.00;99054.25;5015753;28;19917;-43
2023/05/07 08:32:21;;;;;;;;;;;;;;;23.79;100.00;99048.47;5015438;28;20467;-44
2023/05/07 08:34:47;;;;;;;;;;;;;;;23.97;100.00;99060.00;5015534;28;20401;-44
2023/05/07 08:37:12;;;;;;;;;;;;;;;25.61;100.00;99019.84;5015917;28;19927;-43
2023/05/07 08:39:37;;;;;;;;;;;;;;;24.54;100.00;99055.06;5013684;28;19921;-44
2023/05/07 08:42:04;;;;;;;;;;;;;;;24.27;100.00;99047.78;5015933;28;19999;-44
2023/05/07 08:44:29;;;;;;;;;;;;;;;25.35;100.00;99041.56;5015274;28;20007;-44
2023/05/07 08:46:56;;;;;;;;;;;;;;;25.01;100.00;99013.03;5016759;28;20004;-43
2023/05/07 08:49:21;;;;;;;;;;;;;;;25.32;100.00;99026.06;5016997;28;19967;-44
2023/05/07 08:51:46;;;;;;;;;;;;;;;24.34;100.00;99061.22;5016148;28;19917;-43
2023/05/07 08:54:12;;;;;;;;;;;;;;;25.52;100.00;99042.66;5012174;28;19933;-44
2023/05/07 08:56:39;;;;;;;;;;;;;;;25.94;100.00;99026.41;5016223;28;19917;-44
2023/05/07 08:59:05;;;;;;;;;;;;;;;24.66;100.00;99041.75;5014243;28;19940;-44
2023/05/07 09:01:30;;;;;;;;;;;;;;;23.84;100.00;99074.34;5013043;28;19972;-44
2023/05/07 09:03:55;;;;;;;;;;;;;;;26.05;100.00;99017.47;5013716;28;20385;-44
2023/05/07 09:06:20;;;;;;;;;;;;;;;24.54;100.00;99034.00;5017132;28;20111;-44
2023/05/07 09:08:50;;;;;;;;;;;;;;;24.98;100.00;99050.22;5014037;28;19949;-45
2023/05/07 09:11:16;;;;;;;;;;;;;;;23.61;100.00;99071.03;5015414;28;19928;-43
2023/05/07 09:13:41;;;;;;;;;;;;;;;23.86;100.00;99059.28;5015792;28;19925;-45
2023/05/07 09:16:11;;;;;;;;;;;;;;;24.33;100.00;99064.81;5017409;28;20252;-44
2023/05/07 09:18:40;;;;;;;;;;;;;;;25.45;100.00;99005.47;5016410;28;19979;-45
2023/05/07 09:21:05;;;;;;;;;;;;;;;25.85;100.00;99028.06;5015832;28;20401;-44
2023/05/07 09:23:31;;;;;;;;;;;;;;;24.39;100.00;99038.78;5013496;28;20071;-44
2023/05/07 09:25:59;;;;;;;;;;;;;;;25.76;100.00;99007.03;5015308;28;19913;-45
2023/05/07 09:28:25;;;;;;;;;;;;;;;24.27;100.00;99060.94;5019875;28;20926;-45
2023/05/07 09:30:50;;;;;;;;;;;;;;;24.88;100.00;99030.91;5018184;28;19978;-44
2023/05/07 09:33:15;;;;;;;;;;;;;;;25.78;100.00;99021.72;5013000;28;20281;-44
2023/05/07 09:35:40;;;;;;;;;;;;;;;25.30;100.00;99022.72;5011805;28;20409;-44
2023/05/07 09:38:05;;;;;;;;;;;;;;;25.68;100.00;99031.47;5016510;28;20604;-44
2023/05/07 09:40:31;;;;;;;;;;;;;;;24.86;100.00;99039.94;5012108;28;19967;-44
2023/05/07 09:42:56;;;;;;;;;;;;;;;26.74;100.00;98997.53;5013277;28;19921;-44
2023/05/07 09:45:25;;;;;;;;;;;;;;;26.38;100.00;99007.25;5016784;28;20605;-44
2023/05/07 09:47:52;;;;;;;;;;;;;;;25.19;100.00;99026.34;5016649;28;19932;-44
2023/05/07 09:50:17;;;;;;;;;;;;;;;24.85;100.00;99028.56;5019237;28;19987;-45
2023/05/07 09:52:42;;;;;;;;;;;;;;;26.35;100.00;99018.13;5022412;28;20377;-45
2023/05/07 09:55:08;;;;;;;;;;;;;;;25.36;100.00;99014.25;5020955;28;19924;-45
2023/05/07 09:57:33;;;;;;;;;;;;;;;26.24;100.00;98998.03;5016132;28;19921;-44
2023/05/07 09:59:59;;;;;;;;;;;;;;;27.88;100.00;98968.31;5018826;28;19921;-44
2023/05/07 10:02:25;;;;;;;;;;;;;;;27.33;100.00;98980.13;5016734;28;19920;-45
2023/05/07 10:04:51;;;;;;;;;;;;;;;25.81;100.00;98999.50;5014855;28;19920;-45
2023/05/07 10:07:16;;;;;;;;;;;;;;;25.76;100.00;98992.03;5002833;28;19950;-44
2023/05/07 10:09:43;;;;;;;;;;;;;;;25.93;100.00;98986.97;5022622;28;19921;-45
2023/05/07 10:12:08;;;;;;;;;;;;;;;25.79;100.00;98996.16;5020727;28;19924;-44
2023/05/07 10:14:34;;;;;;;;;;;;;;;26.13;100.00;99006.97;5017707;28;19987;-43
2023/05/07 10:16:59;;;;;;;;;;;;;;;26.12;100.00;98976.31;5018139;28;19921;-43
2023/05/07 10:19:24;;;;;;;;;;;;;;;27.35;100.00;98968.53;5017483;28;19917;-44
2023/05/07 10:21:59;;;;;;;;;;;;;;;27.85;100.00;98960.72;5011981;28;19925;-44
2023/05/07 10:24:39;;;;;;;;;;;;;;;27.59;100.00;98960.72;5012043;28;19917;-44
2023/05/07 10:27:05;;;;;;;;;;;;;;;26.47;100.00;98972.00;5014883;28;20559;-44
2023/05/07 10:29:39;;;;;;;;;;;;;;;26.81;100.00;98973.97;4982119;28;20705;-44
2023/05/07 10:32:09;;;;;;;;;;;;;;;27.58;100.00;98969.69;5002476;28;20027;-44
2023/05/07 10:34:38;;;;;;;;;;;;;;;27.26;100.00;98973.00;5024287;28;19921;-44
2023/05/07 10:37:04;;;;;;;;;;;;;;;27.60;100.00;98973.00;5018639;28;20343;-44
2023/05/07 10:39:29;;;;;;;;;;;;;;;29.57;100.00;98904.94;5022486;28;19928;-44
2023/05/07 10:41:55;;;;;;;;;;;;;;;28.86;100.00;98921.75;5027941;28;19917;-45
2023/05/07 10:44:27;;;;;;;;;;;;;;;27.28;100.00;98937.47;5023260;28;19989;-45
2023/05/07 10:47:11;;;;;;;;;;;;;;;25.63;100.00;98960.69;5025611;28;20008;-44
2023/05/07 10:49:56;;;;;;;;;;;;;;;26.98;100.00;98959.91;5019350;28;19921;-44
2023/05/07 10:52:24;;;;;;;;;;;;;;;26.83;100.00;98932.38;5011987;28;19960;-44
2023/05/07 10:55:09;;;;;;;;;;;;;;;26.68;100.00;98945.28;5017797;28;19921;-44
2023/05/07 10:57:37;;;;;;;;;;;;;;;26.56;100.00;98957.91;5023631;28;20022;-45
2023/05/07 11:00:03;;;;;;;;;;;;;;;29.14;100.00;98925.66;5019019;28;19917;-43
2023/05/07 11:02:47;;;;;;;;;;;;;;;29.00;99.37;98902.47;5016500;28;19928;-45
2023/05/07 11:05:19;;;;;;;;;;;;;;;30.00;94.61;98878.84;5019506;28;20584;-44
2023/05/07 11:07:44;;;;;;;;;;;;;;;27.49;98.04;98928.31;5018734;28;20013;-45
2023/05/07 11:10:09;;;;;;;;;;;;;;;29.31;99.47;98907.03;5018583;28;20023;-43
2023/05/07 11:12:37;;;;;;;;;;;;;;;29.65;98.03;98900.59;5017988;28;19927;-44
2023/05/07 11:15:07;;;;;;;;;;;;;;;28.71;100.00;98919.75;5017818;28;19947;-44
2023/05/07 11:17:34;;;;;;;;;;;;;;;27.86;100.00;98930.59;5017025;28;19932;-44
2023/05/07 11:19:59;;;;;;;;;;;;;;;28.40;96.77;98881.69;5016554;28;20879;-44
2023/05/07 11:22:31;;;;;;;;;;;;;;;26.65;99.13;98919.19;5017931;28;19979;-44
2023/05/07 11:24:59;;;;;;;;;;;;;;;26.97;100.00;98937.09;5026299;28;19917;-44
2023/05/07 11:27:25;;;;;;;;;;;;;;;27.51;100.00;98948.31;5025231;28;19995;-45
2023/05/07 11:29:50;;;;;;;;;;;;;;;27.54;100.00;98926.81;5028033;28;19956;-46
2023/05/07 11:32:16;;;;;;;;;;;;;;;29.07;94.39;98866.31;5020404;28;19917;-42
2023/05/07 11:34:41;;;;;;;;;;;;;;;28.93;98.85;98917.41;5011217;28;19925;-45
2023/05/07 11:37:06;;;;;;;;;;;;;;;28.62;91.08;98866.94;5017247;28;19921;-45
2023/05/07 11:39:32;;;;;;;;;;;;;;;28.51;97.83;98918.44;5017195;28;19960;-45
2023/05/07 11:41:58;;;;;;;;;;;;;;;27.56;94.71;98907.34;5017900;28;20449;-44
2023/05/07 11:44:23;;;;;;;;;;;;;;;27.50;100.00;98935.25;5016571;28;19928;-43
2023/05/07 11:46:49;;;;;;;;;;;;;;;28.12;100.00;98924.34;5016810;28;20593;-45
2023/05/07 11:49:14;;;;;;;;;;;;;;;29.28;95.84;98888.81;5015331;28;19924;-43
2023/05/07 11:51:41;;;;;;;;;;;;;;;29.39;96.38;98885.78;5015465;28;20078;-51
2023/05/07 11:54:08;;;;;;;;;;;;;;;27.31;97.60;98921.28;5027139;28;19923;-45
2023/05/07 11:56:34;;;;;;;;;;;;;;;29.97;94.96;98879.22;5017133;28;19917;-45
2023/05/07 11:58:59;;;;;;;;;;;;;;;27.82;96.53;98892.16;5025555;28;19986;-44
2023/05/07 12:01:24;;;;;;;;;;;;;;;27.99;97.53;98903.66;5015483;28;19928;-45
2023/05/07 12:03:49;;;;;;;;;;;;;;;29.05;91.30;98864.84;5016110;28;19921;-43
2023/05/07 12:06:15;;;;;;;;;;;;;;;27.15;93.93;98904.47;5015845;28;19925;-45
2023/05/07 12:08:41;;;;;;;;;;;;;;;27.20;99.92;98939.19;5018220;28;19955;-45
2023/05/07 12:11:07;;;;;;;;;;;;;;;29.34;98.01;98909.38;5018486;28;19967;-45
2023/05/07 12:13:32;;;;;;;;;;;;;;;28.66;97.33;98921.25;5018110;28;19921;-46
2023/05/07 12:15:57;;;;;;;;;;;;;;;28.73;95.02;98904.50;5004003;28;20097;-45
2023/05/07 12:18:22;;;;;;;;;;;;;;;27.95;94.17;98908.44;5004584;28;20007;-45
2023/05/07 12:20:48;;;;;;;;;;;;;;;29.32;93.10;98884.84;5019109;28;19913;-45
2023/05/07 12:23:13;;;;;;;;;;;;;;;27.60;94.43;98914.78;5016550;28;19916;-45
2023/05/07 12:25:39;;;;;;;;;;;;;;;27.38;92.82;98910.06;5017534;28;19948;-45
2023/05/07 12:28:05;;;;;;;;;;;;;;;26.62;98.84;98957.31;5015453;28;19939;-44
2023/05/07 12:30:31;;;;;;;;;;;;;;;27.32;97.61;98932.66;5020954;28;20004;-45